Detall de PIREP

Printer-friendly versionPDF version

[2012/02/26 07:21:00]
Flight IATA:CT3110
Pilot Number:011
Company ICAO:CAT
Aircraft Type:F28/A
PAX:85
Departing Airport: LEBL
Destination Airport: LEPA
Alternate Airport:LEBL
Online: VATSIM
Route:LARPA B31 TOLSO
Flight Level:F170
No Slew and time accel
No pause
Crash detect
Detect pilot in Cockpit between each 30 and 45 minutes
07:21 Zero fuel Weight: 60156 Lbs, Fuel Weight: 7473 Lbs
07:21 VATSIM:LEBL 260700Z 33013KT 9999 FEW025 10/03 Q1016 NOSIG
07:21 VATSIM:LEPA 260700Z VRB01KT 3000 BR NSC 07/06 Q1017 NOSIG
07:25 Parking Brakes off
07:35 Take-off
07:35 Take off Weight: 67045 Lbs
07:35 Wind: 332º @ 012 Knots Heading: 202º
07:35 POS N41º 17´ 40´´ E002º 05´ 16´´
07:35 Gear Up: 168 Knots
07:35 Flaps:2 at 168 Knots
07:36 Flaps:1 at 253 Knots
07:36 Flaps:0 at 256 Knots
07:46 TOC
07:46 Fuel Weight: 5554 Lb
07:50 Wind:329º@025 Knots Heading: 191º Ground Speed: 388 Knots Altitude 17099 ft
07:53 TOD
07:53 Fuel Weight: 4838 Lb
08:04 Flaps:1 at 207 Knots
08:04 Flaps:2 at 205 Knots
08:04 Flaps:3 at 201 Knots
08:05 Wind:324º@000 Knots Heading: 106º Ground Speed: 205 Knots Altitude 3028 ft
08:06 Flaps:4 at 147 Knots
08:06 Gear Down: 143 Knots
08:06 Flaps:5 at 141 Knots
08:11 TouchDown:Rate -220 ft/min Speed: 109 Knots
08:11 VATSIM:LEPA 260800Z 00000KT 4000 BR NSC 09/09 Q1017 NOSIG
08:11 Land
08:11 Wind:327º@000 Knots
08:11 Heading: 060º
08:11 Flight Duration: 00:36
08:11 Landing Weight: 64258 Lbs
08:11 POS N39º 33´ 10´´ E002º 43´ 22´´
08:15 Parking brakes on
08:15 Block to Block Duration: 00:50
08:15 Final Fuel: 3963 Lbls
08:15 Spent Fuel: 3509 Lbls
08:15 Flight Length: 76 NM
08:15 TOD Land Length: 55 NM

Exportar CSV

Powered by Drupal - Modified by Danger4k